Time;durP1;ratioP1;P1;durP2;ratioP2;P2;SDS_P1;SDS_P2;PMS_P1;PMS_P2;Temp;Humidity;BMP_temperature;BMP_pressure;BME280_temperature;BME280_humidity;BME280_pressure;Samples;Min_cycle;Max_cycle;Signal;HPM_P1;HPM_P2
2022/03/27 00:00:13;;;;;;;8.57;4.73;;;7.00;99.90;;;;;;5079911;27;20218;-44
2022/03/27 00:02:41;;;;;;;8.50;4.60;;;7.00;99.90;;;;;;5065446;27;20202;-49
2022/03/27 00:05:09;;;;;;;8.17;4.80;;;7.10;99.90;;;;;;5086865;28;20201;-44
2022/03/27 00:07:36;;;;;;;11.40;5.33;;;7.10;99.90;;;;;;5079549;27;20657;-49
2022/03/27 00:10:04;;;;;;;10.90;4.83;;;7.10;99.90;;;;;;5068592;27;20548;-47
2022/03/27 00:12:31;;;;;;;8.27;4.80;;;7.10;99.90;;;;;;5079782;28;20215;-50
2022/03/27 00:14:58;;;;;;;9.87;5.63;;;7.10;99.90;;;;;;5076493;28;20388;-49
2022/03/27 00:17:27;;;;;;;14.07;5.53;;;7.10;99.90;;;;;;5063406;27;20212;-44
2022/03/27 00:19:54;;;;;;;11.77;5.90;;;7.00;99.90;;;;;;5087985;27;20211;-46
2022/03/27 00:22:22;;;;;;;9.70;5.73;;;7.00;99.90;;;;;;5077064;28;20205;-45
2022/03/27 00:24:49;;;;;;;15.93;5.47;;;7.00;99.90;;;;;;5086558;28;20227;-45
2022/03/27 00:27:16;;;;;;;11.07;6.00;;;7.00;99.90;;;;;;5087750;28;20218;-46
2022/03/27 00:29:43;;;;;;;11.60;6.10;;;7.00;99.90;;;;;;5082141;28;20520;-46
2022/03/27 00:32:09;;;;;;;10.53;6.30;;;7.00;99.90;;;;;;5080746;28;20197;-46
2022/03/27 00:34:38;;;;;;;10.53;7.30;;;7.00;99.90;;;;;;5062346;27;20589;-45
2022/03/27 00:37:05;;;;;;;10.63;6.53;;;7.00;99.90;;;;;;5091656;28;20279;-46
2022/03/27 00:39:32;;;;;;;13.20;6.67;;;7.10;99.90;;;;;;5073126;28;20466;-46
2022/03/27 00:41:58;;;;;;;11.87;6.77;;;7.10;99.90;;;;;;5090320;28;20214;-46
2022/03/27 00:44:25;;;;;;;11.90;6.07;;;7.10;99.90;;;;;;5091773;27;20311;-46
2022/03/27 00:46:52;;;;;;;10.53;6.60;;;7.10;99.90;;;;;;5076571;28;20278;-45
2022/03/27 00:49:20;;;;;;;10.30;6.13;;;7.10;99.90;;;;;;5071816;27;20206;-46
2022/03/27 00:51:48;;;;;;;15.40;6.87;;;7.10;99.90;;;;;;5085526;28;20283;-46
2022/03/27 00:54:15;;;;;;;17.33;6.33;;;7.20;99.90;;;;;;5063032;28;20297;-46
2022/03/27 00:56:42;;;;;;;11.50;6.97;;;7.20;99.90;;;;;;5077623;27;20273;-46
2022/03/27 00:59:09;;;;;;;12.47;6.23;;;7.20;99.90;;;;;;5086740;27;20304;-45
2022/03/27 01:01:39;;;;;;;14.57;6.37;;;7.20;99.90;;;;;;5091003;28;20205;-46
2022/03/27 01:04:07;;;;;;;15.67;5.97;;;7.20;99.90;;;;;;5077368;28;20587;-45
2022/03/27 01:06:36;;;;;;;15.37;6.43;;;7.20;99.90;;;;;;5078750;27;20397;-47
2022/03/27 01:11:51;;;;;;;20.90;6.50;;;7.20;99.90;;;;;;5074863;28;20255;-46
2022/03/27 01:14:22;;;;;;;21.53;7.20;;;7.20;99.90;;;;;;5095776;28;20237;-47
2022/03/27 01:16:58;;;;;;;23.37;7.97;;;7.20;99.90;;;;;;5094168;28;20449;-47
2022/03/27 01:19:26;;;;;;;22.97;8.50;;;7.20;99.90;;;;;;5074864;28;21019;-46
2022/03/27 01:21:55;;;;;;;28.63;7.87;;;7.20;99.90;;;;;;5074864;28;20447;-45
2022/03/27 01:24:22;;;;;;;19.50;6.90;;;7.20;99.90;;;;;;5079488;28;20788;-46
2022/03/27 01:26:49;;;;;;;20.40;7.07;;;7.30;99.90;;;;;;5078222;28;20214;-46
2022/03/27 01:29:16;;;;;;;22.27;6.80;;;7.20;99.90;;;;;;5082389;28;20471;-47
2022/03/27 01:31:44;;;;;;;19.33;6.40;;;7.30;99.90;;;;;;5087451;28;20211;-46
2022/03/27 01:34:12;;;;;;;17.80;7.27;;;7.30;99.90;;;;;;5094471;28;20239;-45
2022/03/27 01:36:38;;;;;;;18.60;5.97;;;7.30;99.90;;;;;;5079840;28;20213;-46
2022/03/27 01:39:09;;;;;;;24.70;6.53;;;7.30;99.90;;;;;;5086132;28;20613;-49
2022/03/27 01:41:36;;;;;;;20.87;6.63;;;7.30;99.90;;;;;;5093480;28;20204;-45
2022/03/27 01:44:06;;;;;;;27.23;6.60;;;7.30;99.90;;;;;;5082163;28;20253;-46
2022/03/27 01:46:33;;;;;;;35.07;6.63;;;7.30;99.90;;;;;;5073989;28;20462;-45
2022/03/27 01:49:01;;;;;;;30.63;9.03;;;7.30;99.90;;;;;;5094651;28;20217;-46
2022/03/27 01:51:28;;;;;;;36.27;9.97;;;7.20;99.90;;;;;;5066679;28;20744;-45
2022/03/27 01:53:55;;;;;;;37.27;9.03;;;7.30;99.90;;;;;;5080040;28;20268;-46
2022/03/27 01:56:24;;;;;;;30.43;8.03;;;7.30;99.90;;;;;;5071481;28;20210;-46
2022/03/27 01:58:51;;;;;;;35.67;8.93;;;7.30;99.90;;;;;;5095491;28;20208;-46
2022/03/27 02:01:19;;;;;;;35.37;7.87;;;7.30;99.90;;;;;;5075548;28;20203;-46
2022/03/27 02:03:46;;;;;;;39.30;9.23;;;7.20;99.90;;;;;;5093940;28;20442;-45
2022/03/27 02:06:13;;;;;;;35.90;8.17;;;7.20;99.90;;;;;;5073485;28;20233;-46
2022/03/27 02:08:40;;;;;;;28.73;8.87;;;7.20;99.90;;;;;;5067074;28;20411;-45
2022/03/27 02:11:07;;;;;;;32.20;8.27;;;7.20;99.90;;;;;;5085481;28;20200;-46
2022/03/27 02:13:36;;;;;;;38.40;8.33;;;7.30;99.90;;;;;;5080705;28;20300;-45
2022/03/27 02:16:03;;;;;;;31.07;8.80;;;7.30;99.90;;;;;;5089017;27;20295;-46
2022/03/27 02:18:31;;;;;;;34.67;7.37;;;7.30;99.90;;;;;;5095164;28;20222;-45
2022/03/27 02:21:00;;;;;;;43.33;8.53;;;7.30;99.90;;;;;;5094130;28;20410;-45
2022/03/27 02:23:28;;;;;;;28.77;7.37;;;7.30;99.90;;;;;;5063700;27;20227;-46
2022/03/27 02:25:55;;;;;;;35.47;7.20;;;7.30;99.90;;;;;;5074843;27;20217;-45
2022/03/27 02:28:23;;;;;;;27.60;7.40;;;7.30;99.90;;;;;;5076954;28;20580;-46
2022/03/27 02:30:52;;;;;;;30.57;6.67;;;7.30;99.90;;;;;;5085588;28;20203;-45
2022/03/27 02:33:19;;;;;;;30.60;7.33;;;7.30;99.90;;;;;;5091006;28;20273;-47
2022/03/27 02:35:46;;;;;;;28.90;6.17;;;7.30;99.90;;;;;;5071186;28;20220;-45
2022/03/27 02:38:13;;;;;;;27.17;7.03;;;7.40;99.90;;;;;;5093749;28;20604;-45
2022/03/27 02:40:42;;;;;;;41.57;6.50;;;7.30;99.90;;;;;;5076250;28;20293;-45
2022/03/27 02:43:10;;;;;;;27.10;6.93;;;7.30;99.90;;;;;;5071201;27;20458;-46
2022/03/27 02:45:37;;;;;;;38.90;7.07;;;7.30;99.90;;;;;;5084231;28;20208;-47
2022/03/27 02:48:06;;;;;;;40.33;7.07;;;7.30;99.90;;;;;;5069202;27;20408;-46
2022/03/27 02:50:34;;;;;;;35.93;7.17;;;7.30;99.90;;;;;;5093546;28;20400;-46
2022/03/27 02:53:00;;;;;;;33.07;6.23;;;7.20;99.90;;;;;;5081063;27;20437;-47
2022/03/27 02:55:27;;;;;;;39.70;7.40;;;7.20;99.90;;;;;;5077426;27;20604;-45
2022/03/27 02:57:55;;;;;;;41.33;7.73;;;7.30;99.90;;;;;;5080411;28;20285;-47
2022/03/27 03:00:23;;;;;;;33.60;7.40;;;7.20;99.90;;;;;;5078205;27;20242;-45
2022/03/27 03:02:51;;;;;;;42.13;6.73;;;7.30;99.90;;;;;;5093184;27;20423;-49
2022/03/27 03:05:20;;;;;;;32.23;6.63;;;7.20;99.90;;;;;;5083106;27;20442;-45
2022/03/27 03:07:47;;;;;;;42.53;8.77;;;7.20;99.90;;;;;;5088080;28;21167;-48
2022/03/27 03:10:15;;;;;;;42.17;7.33;;;7.20;99.90;;;;;;5068435;27;20212;-50
2022/03/27 03:12:42;;;;;;;25.73;6.40;;;7.20;99.90;;;;;;5085555;28;20216;-49
2022/03/27 03:15:10;;;;;;;40.90;7.07;;;7.30;99.90;;;;;;5080434;28;20727;-48
2022/03/27 03:17:38;;;;;;;25.97;7.17;;;7.20;99.90;;;;;;5090860;28;20203;-46
2022/03/27 03:20:06;;;;;;;29.10;8.43;;;7.20;99.90;;;;;;5088225;27;20276;-46
2022/03/27 03:22:35;;;;;;;38.93;7.03;;;7.20;99.90;;;;;;5080352;28;20240;-46
2022/03/27 03:25:03;;;;;;;34.90;7.20;;;7.20;99.90;;;;;;5071666;27;20322;-46
2022/03/27 03:27:30;;;;;;;34.73;6.73;;;7.20;99.90;;;;;;5079636;28;20244;-49
2022/03/27 03:29:57;;;;;;;26.60;6.67;;;7.20;99.90;;;;;;5074193;27;20594;-44
2022/03/27 03:32:24;;;;;;;43.53;7.10;;;7.20;99.90;;;;;;5091509;28;20213;-47
2022/03/27 03:34:51;;;;;;;20.10;5.93;;;7.20;99.90;;;;;;5070530;28;20245;-48
2022/03/27 03:37:18;;;;;;;28.60;7.50;;;7.10;99.90;;;;;;5091444;28;20304;-43
2022/03/27 03:39:47;;;;;;;28.13;7.37;;;7.10;99.90;;;;;;5080061;27;20263;-50
2022/03/27 03:42:14;;;;;;;32.80;8.27;;;7.10;99.90;;;;;;5073327;28;20501;-47
2022/03/27 03:44:43;;;;;;;32.63;7.73;;;7.10;99.90;;;;;;5081459;28;20491;-48
2022/03/27 03:47:10;;;;;;;30.47;6.87;;;7.10;99.90;;;;;;5094751;28;20301;-49
2022/03/27 03:49:38;;;;;;;30.67;7.03;;;7.10;99.90;;;;;;5084896;27;20258;-49
2022/03/27 03:52:06;;;;;;;28.97;6.27;;;7.10;99.90;;;;;;5088030;28;20467;-45
2022/03/27 03:54:33;;;;;;;36.47;7.47;;;7.10;99.90;;;;;;5082614;28;20632;-45
2022/03/27 03:57:02;;;;;;;29.23;7.23;;;7.20;99.90;;;;;;5068187;28;20232;-46
2022/03/27 03:59:29;;;;;;;31.63;7.43;;;7.20;99.90;;;;;;5087767;28;20534;-47
2022/03/27 04:01:56;;;;;;;25.90;6.77;;;7.20;99.90;;;;;;5089950;27;20401;-48
2022/03/27 04:04:23;;;;;;;26.83;7.00;;;7.10;99.90;;;;;;5096212;28;20230;-46
2022/03/27 04:06:49;;;;;;;31.50;6.93;;;7.20;99.90;;;;;;5093129;28;20214;-49
2022/03/27 04:09:16;;;;;;;28.77;6.37;;;7.20;99.90;;;;;;5096271;28;20541;-47
2022/03/27 04:11:44;;;;;;;29.50;6.27;;;6.90;99.90;;;;;;5075316;28;20554;-49
2022/03/27 04:14:12;;;;;;;36.60;6.80;;;7.20;99.90;;;;;;5056850;27;20361;-46
2022/03/27 04:16:39;;;;;;;32.80;6.43;;;7.20;99.90;;;;;;5084444;27;20461;-45
2022/03/27 04:19:06;;;;;;;28.33;6.50;;;7.10;99.90;;;;;;5066796;27;20240;-49
2022/03/27 04:21:33;;;;;;;28.93;6.80;;;7.10;99.90;;;;;;5095197;28;20431;-45
2022/03/27 04:24:00;;;;;;;28.53;7.50;;;7.10;99.90;;;;;;5098465;28;20478;-48
2022/03/27 04:26:27;;;;;;;28.73;6.73;;;7.10;99.90;;;;;;5084881;28;20518;-45
2022/03/27 04:28:54;;;;;;;31.30;6.37;;;7.10;99.90;;;;;;5066401;28;20285;-47
2022/03/27 04:31:22;;;;;;;30.33;7.37;;;7.20;99.90;;;;;;5069015;28;20269;-47
2022/03/27 04:33:49;;;;;;;26.10;6.57;;;7.10;99.90;;;;;;5071574;28;20379;-45
2022/03/27 04:36:16;;;;;;;33.83;6.13;;;7.00;99.90;;;;;;5090807;28;20234;-47
2022/03/27 04:38:43;;;;;;;36.37;7.57;;;7.00;99.90;;;;;;5085347;28;20207;-45
2022/03/27 04:41:10;;;;;;;31.63;7.33;;;7.10;99.90;;;;;;5090301;28;20562;-47
2022/03/27 04:43:36;;;;;;;34.50;6.77;;;7.10;99.90;;;;;;5074928;28;20514;-45
2022/03/27 04:46:04;;;;;;;31.03;7.77;;;7.10;99.90;;;;;;5077574;28;20233;-47
2022/03/27 04:48:32;;;;;;;34.77;7.20;;;7.10;99.90;;;;;;5070818;28;22665;-46
2022/03/27 04:50:59;;;;;;;30.67;6.63;;;7.10;99.90;;;;;;5099493;28;20286;-47
2022/03/27 04:53:26;;;;;;;36.47;6.70;;;7.10;99.90;;;;;;5071120;28;20624;-46
2022/03/27 04:55:53;;;;;;;31.97;6.77;;;7.10;99.90;;;;;;5085647;27;20575;-46
2022/03/27 04:58:20;;;;;;;47.23;7.80;;;7.10;99.90;;;;;;5075674;27;20286;-47
2022/03/27 05:00:47;;;;;;;26.80;6.60;;;7.00;99.90;;;;;;5064264;28;20407;-47
2022/03/27 05:03:15;;;;;;;31.50;7.17;;;7.10;99.90;;;;;;5084216;27;20608;-46
2022/03/27 05:05:43;;;;;;;26.30;6.20;;;7.10;99.90;;;;;;5077676;27;20257;-47
2022/03/27 05:08:10;;;;;;;25.73;7.90;;;7.00;99.90;;;;;;5073163;28;20582;-45
2022/03/27 05:10:38;;;;;;;29.23;7.57;;;7.10;99.90;;;;;;5073261;28;20232;-47
2022/03/27 05:13:05;;;;;;;30.20;7.30;;;7.00;99.90;;;;;;5090132;28;20304;-46
2022/03/27 05:15:32;;;;;;;30.40;6.97;;;7.00;99.90;;;;;;5071132;28;20231;-46
2022/03/27 05:17:59;;;;;;;38.53;6.47;;;7.00;99.90;;;;;;5075314;28;20286;-45
2022/03/27 05:20:28;;;;;;;30.57;6.23;;;6.90;99.90;;;;;;5083987;28;20456;-45
2022/03/27 05:22:57;;;;;;;26.93;7.37;;;7.00;99.90;;;;;;5077052;28;20230;-45
2022/03/27 05:25:24;;;;;;;24.20;6.13;;;7.00;99.90;;;;;;5081339;27;20211;-46
2022/03/27 05:27:53;;;;;;;29.67;7.60;;;6.90;99.90;;;;;;5073170;28;20600;-45
2022/03/27 05:30:22;;;;;;;28.30;7.30;;;6.90;99.90;;;;;;5076214;28;20219;-46
2022/03/27 05:32:50;;;;;;;31.20;6.13;;;6.90;99.90;;;;;;5063812;28;20208;-46
2022/03/27 05:35:17;;;;;;;28.63;6.13;;;7.00;99.90;;;;;;5079061;28;20597;-46
2022/03/27 05:37:46;;;;;;;25.73;6.13;;;7.00;99.90;;;;;;5065228;28;20698;-46
2022/03/27 05:40:17;;;;;;;35.90;6.20;;;7.00;99.90;;;;;;5096099;28;20275;-46
2022/03/27 05:42:44;;;;;;;26.07;6.67;;;7.10;99.90;;;;;;5075798;28;20241;-45
2022/03/27 05:45:11;;;;;;;23.57;6.03;;;7.10;99.90;;;;;;5090487;28;20201;-45
2022/03/27 05:47:41;;;;;;;23.10;6.30;;;7.00;99.90;;;;;;5065212;27;20205;-46
2022/03/27 05:50:09;;;;;;;27.83;6.40;;;7.10;99.90;;;;;;5095564;28;20274;-46
2022/03/27 05:52:36;;;;;;;23.67;6.03;;;7.10;99.90;;;;;;5073612;27;20209;-46
2022/03/27 05:55:04;;;;;;;26.63;5.90;;;7.10;99.90;;;;;;5085045;27;20282;-45
2022/03/27 05:57:32;;;;;;;31.93;7.13;;;7.00;99.90;;;;;;5090684;28;20503;-46
2022/03/27 05:59:59;;;;;;;25.67;6.43;;;7.10;99.90;;;;;;5082403;27;20393;-46
2022/03/27 06:02:26;;;;;;;25.70;5.83;;;7.10;99.90;;;;;;5051311;27;20213;-46
2022/03/27 06:04:53;;;;;;;28.20;6.40;;;7.10;99.90;;;;;;5079637;27;20337;-46
2022/03/27 06:07:19;;;;;;;29.03;7.30;;;7.10;99.90;;;;;;5077381;27;20237;-45
2022/03/27 06:09:46;;;;;;;36.50;7.23;;;7.10;99.90;;;;;;5079527;27;20627;-46
2022/03/27 06:12:13;;;;;;;28.00;7.17;;;7.10;99.90;;;;;;5096360;27;20266;-46
2022/03/27 06:14:41;;;;;;;24.03;7.13;;;7.10;99.90;;;;;;5097389;27;20220;-45
2022/03/27 06:17:08;;;;;;;30.37;8.50;;;7.10;99.90;;;;;;5055298;27;20655;-46
2022/03/27 06:19:35;;;;;;;26.97;8.30;;;7.00;99.90;;;;;;5079641;27;21275;-46
2022/03/27 06:22:02;;;;;;;30.90;8.40;;;7.10;99.90;;;;;;5057067;27;20573;-46
2022/03/27 06:24:29;;;;;;;28.90;7.67;;;7.00;99.90;;;;;;5076621;27;20232;-45
2022/03/27 06:26:56;;;;;;;38.73;9.20;;;7.00;99.90;;;;;;5091588;27;20271;-46
2022/03/27 06:29:23;;;;;;;27.23;8.07;;;7.00;99.90;;;;;;5090067;27;20204;-45
2022/03/27 06:31:52;;;;;;;37.57;8.93;;;7.00;99.90;;;;;;5071610;27;20259;-46
2022/03/27 06:34:19;;;;;;;32.00;9.33;;;7.10;99.90;;;;;;5074976;27;20534;-45
2022/03/27 06:36:46;;;;;;;35.83;11.40;;;7.10;99.90;;;;;;5095629;27;20258;-46
2022/03/27 06:39:13;;;;;;;49.30;11.63;;;7.10;99.90;;;;;;5064222;27;20744;-44
2022/03/27 06:41:40;;;;;;;37.53;10.73;;;7.10;99.90;;;;;;5087116;27;20267;-46
2022/03/27 06:44:07;;;;;;;41.33;11.73;;;7.10;99.90;;;;;;5092998;27;20217;-46
2022/03/27 06:46:33;;;;;;;43.40;13.00;;;7.10;99.90;;;;;;5072965;27;20228;-45
2022/03/27 06:49:02;;;;;;;39.37;11.00;;;7.10;99.90;;;;;;5063052;27;20233;-46
2022/03/27 06:51:29;;;;;;;39.87;11.23;;;7.10;99.90;;;;;;5084876;27;20214;-46
2022/03/27 06:53:55;;;;;;;30.33;9.83;;;7.10;99.90;;;;;;5070314;27;23349;-46
2022/03/27 06:56:22;;;;;;;33.97;10.40;;;7.20;99.90;;;;;;5078160;27;20417;-46
2022/03/27 06:58:49;;;;;;;36.20;11.07;;;7.20;99.90;;;;;;5071736;28;20216;-46
2022/03/27 07:04:02;;;;;;;36.87;11.53;;;7.20;99.90;;;;;;5072512;27;20522;-46
2022/03/27 07:06:29;;;;;;;32.03;10.40;;;7.20;99.90;;;;;;5086631;27;20479;-44
2022/03/27 07:08:56;;;;;;;39.57;10.37;;;7.20;99.90;;;;;;5081328;27;20210;-48
2022/03/27 07:11:23;;;;;;;36.47;10.50;;;7.30;99.90;;;;;;5064826;27;20232;-46
2022/03/27 07:13:49;;;;;;;38.33;10.57;;;7.30;99.90;;;;;;5090489;27;20235;-47
2022/03/27 07:16:16;;;;;;;24.53;9.87;;;7.30;99.90;;;;;;5072562;27;20226;-45
2022/03/27 07:18:49;;;;;;;34.40;11.27;;;7.30;99.90;;;;;;5089454;27;20202;-46
2022/03/27 07:21:17;;;;;;;32.43;10.73;;;7.40;99.90;;;;;;5069324;27;20698;-45
2022/03/27 07:23:44;;;;;;;42.40;12.70;;;7.40;99.90;;;;;;5078049;28;20316;-46
2022/03/27 07:26:11;;;;;;;30.83;10.20;;;7.40;99.90;;;;;;5068764;27;20628;-45
2022/03/27 07:28:38;;;;;;;34.03;11.87;;;7.40;99.90;;;;;;5081578;27;20218;-47
2022/03/27 07:31:05;;;;;;;35.07;11.37;;;7.40;99.90;;;;;;5082471;27;20201;-45
2022/03/27 07:33:32;;;;;;;40.03;12.37;;;7.50;99.90;;;;;;5082815;27;20233;-46
2022/03/27 07:35:59;;;;;;;37.60;13.03;;;7.40;99.90;;;;;;5073795;27;20251;-47
2022/03/27 07:38:27;;;;;;;41.00;11.47;;;7.40;99.90;;;;;;5082582;27;20238;-46
2022/03/27 07:40:55;;;;;;;36.80;12.77;;;7.40;99.90;;;;;;5079034;27;20775;-45
2022/03/27 07:43:22;;;;;;;36.37;11.43;;;7.40;99.90;;;;;;5068051;27;20250;-46
2022/03/27 07:45:49;;;;;;;31.40;11.27;;;7.50;99.90;;;;;;5092972;27;20212;-46
2022/03/27 07:48:16;;;;;;;44.80;12.57;;;7.40;99.90;;;;;;5073002;27;20243;-45
2022/03/27 07:50:44;;;;;;;36.50;12.60;;;7.40;99.90;;;;;;5060812;27;20305;-45
2022/03/27 07:53:11;;;;;;;34.23;11.77;;;7.40;99.90;;;;;;5071348;27;20844;-46
2022/03/27 07:55:39;;;;;;;37.23;10.67;;;7.50;99.90;;;;;;5072473;27;22791;-45
2022/03/27 07:58:06;;;;;;;43.80;11.20;;;7.60;99.90;;;;;;5081440;27;20765;-46
2022/03/27 08:00:33;;;;;;;44.40;11.60;;;7.50;99.90;;;;;;5072533;27;20214;-46
2022/03/27 08:03:00;;;;;;;42.07;12.77;;;7.60;99.90;;;;;;5064504;27;20226;-45
2022/03/27 08:05:27;;;;;;;34.10;11.37;;;7.60;99.90;;;;;;5061625;27;20968;-46
2022/03/27 08:07:54;;;;;;;36.73;11.30;;;7.50;99.90;;;;;;5084626;28;20362;-46
2022/03/27 08:10:21;;;;;;;33.23;11.77;;;7.60;99.90;;;;;;5073118;27;20210;-47
2022/03/27 08:12:49;;;;;;;34.20;11.77;;;7.60;99.90;;;;;;5082398;27;20210;-45
2022/03/27 08:15:18;;;;;;;42.20;11.97;;;7.60;99.90;;;;;;5078227;27;20206;-46
2022/03/27 08:17:45;;;;;;;42.43;12.00;;;7.50;99.90;;;;;;5082214;27;20225;-46
2022/03/27 08:20:12;;;;;;;44.00;13.03;;;7.50;99.90;;;;;;5085574;28;21404;-46
2022/03/27 08:22:39;;;;;;;35.43;11.50;;;7.50;99.90;;;;;;5067779;27;20285;-45
2022/03/27 08:25:07;;;;;;;28.07;10.80;;;7.60;99.90;;;;;;5077653;27;20275;-45
2022/03/27 08:27:33;;;;;;;39.73;11.60;;;7.60;99.90;;;;;;5075208;28;20391;-45
2022/03/27 08:30:02;;;;;;;41.50;12.00;;;7.70;99.90;;;;;;5065185;28;20274;-50
2022/03/27 08:32:29;;;;;;;36.53;11.20;;;7.70;99.90;;;;;;5085925;28;20566;-45
2022/03/27 08:34:57;;;;;;;47.07;11.57;;;7.70;99.90;;;;;;5078257;27;20545;-47
2022/03/27 08:37:24;;;;;;;37.10;10.80;;;7.70;99.90;;;;;;5069339;27;20314;-46
2022/03/27 08:39:53;;;;;;;29.37;9.97;;;7.70;99.90;;;;;;5062513;28;20205;-47
2022/03/27 08:42:20;;;;;;;31.13;10.33;;;7.80;99.90;;;;;;5068841;27;21170;-45
2022/03/27 08:44:47;;;;;;;38.60;10.80;;;7.90;99.90;;;;;;5055827;27;20237;-47
2022/03/27 08:47:23;;;;;;;48.80;12.60;;;7.80;99.90;;;;;;5071926;28;20206;-47
2022/03/27 08:49:55;;;;;;;30.73;11.10;;;7.90;99.90;;;;;;5069336;27;20210;-46
2022/03/27 08:52:55;;;;;;;38.07;11.03;;;7.90;99.90;;;;;;5069517;28;20470;-47
2022/03/27 08:55:32;;;;;;;39.83;12.43;;;7.90;99.90;;;;;;5068509;27;20213;-47
2022/03/27 08:58:01;;;;;;;48.47;12.17;;;8.00;99.90;;;;;;5066710;27;20317;-46
2022/03/27 09:00:30;;;;;;;29.37;11.00;;;7.90;99.90;;;;;;5084652;27;20853;-45
2022/03/27 09:03:00;;;;;;;32.33;10.73;;;7.90;99.90;;;;;;5057023;27;20231;-46
2022/03/27 09:05:27;;;;;;;34.70;11.50;;;7.90;99.90;;;;;;5077154;27;20234;-46
2022/03/27 09:07:56;;;;;;;32.90;11.60;;;7.90;99.90;;;;;;5063277;28;20210;-47
2022/03/27 09:10:25;;;;;;;38.03;10.77;;;8.00;99.90;;;;;;5066164;28;20560;-47
2022/03/27 09:12:54;;;;;;;27.00;10.30;;;8.10;99.90;;;;;;5073677;28;20259;-47
2022/03/27 09:15:21;;;;;;;31.00;10.93;;;8.10;99.90;;;;;;5066140;27;20232;-45
2022/03/27 09:18:01;;;;;;;39.87;10.67;;;8.20;99.90;;;;;;5079983;27;20237;-46
2022/03/27 09:20:36;;;;;;;36.17;10.63;;;8.20;99.90;;;;;;5053583;28;20248;-45
2022/03/27 09:23:21;;;;;;;27.27;10.73;;;8.20;99.90;;;;;;5085825;28;20550;-46
2022/03/27 09:25:51;;;;;;;23.50;9.73;;;8.10;99.90;;;;;;5075410;28;20206;-45
2022/03/27 09:28:31;;;;;;;32.30;10.30;;;8.00;99.90;;;;;;5072805;27;20203;-45
2022/03/27 09:31:00;;;;;;;28.67;10.17;;;8.00;99.90;;;;;;5075486;28;20207;-46
2022/03/27 09:33:37;;;;;;;31.30;9.83;;;8.00;99.90;;;;;;5068971;28;20430;-48
2022/03/27 09:36:05;;;;;;;31.73;10.47;;;8.10;99.90;;;;;;5060671;28;20206;-45
2022/03/27 09:38:32;;;;;;;31.60;10.13;;;8.10;99.90;;;;;;5061633;28;20368;-44
2022/03/27 09:40:59;;;;;;;29.83;9.37;;;8.10;99.90;;;;;;5079516;28;20204;-47
2022/03/27 09:43:26;;;;;;;26.57;8.70;;;8.20;99.90;;;;;;5073826;28;20218;-45
2022/03/27 09:45:58;;;;;;;31.47;9.93;;;8.30;99.90;;;;;;5067300;28;20214;-47
2022/03/27 09:48:25;;;;;;;26.80;9.63;;;8.30;99.90;;;;;;5076478;28;20545;-46
2022/03/27 09:50:55;;;;;;;33.60;9.40;;;8.40;99.90;;;;;;5091900;28;20306;-45
2022/03/27 09:53:25;;;;;;;33.83;9.40;;;8.30;99.90;;;;;;5076932;28;20455;-46
2022/03/27 09:56:12;;;;;;;28.63;8.53;;;8.40;99.90;;;;;;5051316;28;20314;-46
2022/03/27 09:58:42;;;;;;;31.17;9.33;;;8.50;99.90;;;;;;5088619;28;20199;-46
2022/03/27 10:01:11;;;;;;;31.87;9.77;;;8.50;99.90;;;;;;5070510;28;20313;-45
2022/03/27 10:03:38;;;;;;;30.73;9.77;;;8.60;99.90;;;;;;5087484;28;20227;-46
2022/03/27 10:06:27;;;;;;;33.30;9.70;;;8.60;99.90;;;;;;5087387;28;20208;-45
2022/03/27 10:08:54;;;;;;;48.47;9.83;;;8.60;99.90;;;;;;5074908;28;20674;-46
2022/03/27 10:11:22;;;;;;;41.57;10.33;;;8.70;99.90;;;;;;5063796;28;20211;-46
2022/03/27 10:13:52;;;;;;;33.83;10.00;;;8.70;99.90;;;;;;5083221;28;20216;-46
2022/03/27 10:16:24;;;;;;;38.57;10.67;;;8.70;99.90;;;;;;5057070;28;20250;-45
2022/03/27 10:18:53;;;;;;;40.93;11.90;;;8.70;99.90;;;;;;5072093;28;20663;-46
2022/03/27 10:21:24;;;;;;;34.40;10.93;;;8.60;99.90;;;;;;5083665;28;20199;-46
2022/03/27 10:23:56;;;;;;;43.60;12.23;;;8.60;99.90;;;;;;5057483;28;20224;-46
2022/03/27 10:26:23;;;;;;;40.20;10.77;;;8.60;99.90;;;;;;5071345;28;20416;-46
2022/03/27 10:28:51;;;;;;;49.30;11.57;;;8.60;99.90;;;;;;5079472;27;20208;-45
2022/03/27 10:31:19;;;;;;;41.37;11.10;;;8.70;99.90;;;;;;5071877;28;20413;-46
2022/03/27 10:33:46;;;;;;;29.47;11.20;;;8.70;99.90;;;;;;5075728;27;20224;-46
2022/03/27 10:36:18;;;;;;;36.87;11.23;;;8.70;99.90;;;;;;5072442;27;20217;-47
2022/03/27 10:38:55;;;;;;;37.40;12.30;;;8.80;99.90;;;;;;5075756;27;20224;-46
2022/03/27 10:41:28;;;;;;;33.17;11.67;;;9.00;99.90;;;;;;5055351;28;20601;-46
2022/03/27 10:44:02;;;;;;;33.97;10.93;;;9.00;99.90;;;;;;5074262;27;20262;-46
2022/03/27 10:46:29;;;;;;;40.23;11.80;;;9.00;99.90;;;;;;5091652;27;20199;-48
2022/03/27 10:49:12;;;;;;;32.63;10.60;;;9.10;99.90;;;;;;5061930;27;20203;-46
2022/03/27 10:51:41;;;;;;;34.13;10.77;;;9.20;99.90;;;;;;5094333;27;20617;-47
2022/03/27 10:54:11;;;;;;;38.47;12.40;;;9.30;99.90;;;;;;5068860;27;20268;-46
2022/03/27 10:56:41;;;;;;;34.57;11.40;;;9.30;99.90;;;;;;5053459;27;20248;-46
2022/03/27 10:59:11;;;;;;;38.27;11.43;;;9.40;99.90;;;;;;5081352;27;21014;-46
2022/03/27 11:01:40;;;;;;;28.90;11.13;;;9.30;99.90;;;;;;5076366;27;20238;-46
2022/03/27 11:04:09;;;;;;;34.03;11.00;;;9.30;99.90;;;;;;5061429;27;20252;-45
2022/03/27 11:06:37;;;;;;;34.30;11.23;;;9.20;99.90;;;;;;5062770;27;20211;-45
2022/03/27 11:09:06;;;;;;;36.40;12.30;;;9.20;99.90;;;;;;5074845;27;20279;-47
2022/03/27 11:12:05;;;;;;;31.57;11.23;;;9.20;99.90;;;;;;5067159;28;20212;-46
2022/03/27 11:14:59;;;;;;;30.20;10.57;;;9.20;99.90;;;;;;5089012;28;20234;-46
2022/03/27 11:17:52;;;;;;;34.50;10.77;;;9.20;99.90;;;;;;5064186;27;20781;-46
2022/03/27 11:20:56;;;;;;;27.20;10.27;;;9.10;99.90;;;;;;5078273;28;20208;-46
2022/03/27 11:23:28;;;;;;;26.47;10.30;;;9.20;99.90;;;;;;5055261;28;21328;-47
2022/03/27 11:25:56;;;;;;;31.17;10.00;;;9.20;99.90;;;;;;5081723;27;20283;-47
2022/03/27 11:28:25;;;;;;;23.20;10.23;;;9.10;99.90;;;;;;5082352;27;20596;-46
2022/03/27 11:31:18;;;;;;;28.87;10.93;;;9.10;99.90;;;;;;5089020;28;20203;-47
2022/03/27 11:34:05;;;;;;;34.97;11.20;;;9.10;99.90;;;;;;5075553;28;20595;-47
2022/03/27 11:36:32;;;;;;;27.70;11.43;;;9.20;99.90;;;;;;5082692;27;20364;-45
2022/03/27 11:39:04;;;;;;;27.10;12.50;;;9.30;99.90;;;;;;5072832;28;20421;-47
2022/03/27 11:41:38;;;;;;;28.90;11.93;;;9.30;99.90;;;;;;5064623;27;20297;-45
2022/03/27 11:44:24;;;;;;;31.60;11.67;;;9.40;99.90;;;;;;5093282;27;20290;-47
2022/03/27 11:46:52;;;;;;;31.53;11.20;;;9.40;99.90;;;;;;5076408;27;20430;-47
2022/03/27 11:49:20;;;;;;;35.47;12.30;;;9.40;99.90;;;;;;5082776;27;20199;-46
2022/03/27 11:51:47;;;;;;;36.77;11.90;;;9.40;99.90;;;;;;5075923;27;20214;-46
2022/03/27 11:54:19;;;;;;;47.00;13.33;;;9.40;99.90;;;;;;5053264;27;20228;-46
2022/03/27 11:56:56;;;;;;;39.07;12.20;;;9.50;99.90;;;;;;5063632;27;20687;-46
2022/03/27 11:59:26;;;;;;;30.77;13.03;;;9.40;99.90;;;;;;5072987;27;20211;-46
2022/03/27 12:01:54;;;;;;;35.67;13.23;;;9.50;99.90;;;;;;5088197;27;20214;-46
2022/03/27 12:04:21;;;;;;;38.40;12.60;;;9.40;99.90;;;;;;5068746;28;20487;-45
2022/03/27 12:06:55;;;;;;;35.40;12.80;;;9.40;99.90;;;;;;5079440;27;20245;-46
2022/03/27 12:09:27;;;;;;;38.67;13.07;;;9.50;99.90;;;;;;5075233;28;20279;-45
2022/03/27 12:12:08;;;;;;;37.93;12.47;;;9.70;99.90;;;;;;5065077;27;20226;-46
2022/03/27 12:14:54;;;;;;;36.23;12.70;;;9.70;99.90;;;;;;5077043;27;20215;-48
2022/03/27 12:17:21;;;;;;;29.93;12.33;;;9.70;99.90;;;;;;5085149;27;20229;-48
2022/03/27 12:19:59;;;;;;;37.20;12.13;;;9.60;99.90;;;;;;5077040;27;20203;-46
2022/03/27 12:22:37;;;;;;;30.20;10.90;;;9.60;99.90;;;;;;5079552;27;20206;-47
2022/03/27 12:25:07;;;;;;;34.77;11.87;;;9.70;99.90;;;;;;5076680;27;20207;-47
2022/03/27 12:30:21;;;;;;;22.70;9.83;;;9.80;99.90;;;;;;5071177;28;20211;-46
2022/03/27 12:32:48;;;;;;;37.77;11.07;;;9.90;99.90;;;;;;5068113;27;20545;-46
2022/03/27 12:35:23;;;;;;;31.27;10.67;;;10.00;99.90;;;;;;5061943;27;20210;-46
2022/03/27 12:37:50;;;;;;;28.00;11.00;;;10.10;99.90;;;;;;5097315;27;20277;-45
2022/03/27 12:40:17;;;;;;;25.33;9.90;;;10.10;99.90;;;;;;5077816;27;20200;-46
2022/03/27 12:42:47;;;;;;;30.03;9.80;;;10.10;99.90;;;;;;5062246;27;20234;-45
2022/03/27 12:45:17;;;;;;;29.03;10.33;;;10.10;99.90;;;;;;5081904;28;20210;-46
2022/03/27 12:47:47;;;;;;;26.07;9.63;;;9.90;99.90;;;;;;5100144;27;20222;-47
2022/03/27 12:50:16;;;;;;;38.80;11.50;;;9.90;99.90;;;;;;5085670;27;20210;-46
2022/03/27 12:52:48;;;;;;;23.20;10.80;;;9.90;99.90;;;;;;5103883;27;20278;-46
2022/03/27 12:55:16;;;;;;;27.17;9.80;;;9.80;99.90;;;;;;5082897;27;20278;-46
2022/03/27 12:57:50;;;;;;;26.03;11.03;;;9.90;99.90;;;;;;5058015;27;20782;-46
2022/03/27 13:00:18;;;;;;;36.67;11.57;;;9.90;99.90;;;;;;5060658;28;20621;-47